Archival Weather

Chicago O'Hare International

Chicago, Illinois (KORD)

Report from: Sunday, February 5, 2023 9:51 AM CST
Current time: Monday, June 17, 2024 5:02 AM CDT

Current weather – Weather history – Daily summaries
Weather forecast

Temperature2.8°C (37.0°F)
Wind chill-2.4°C (27.7°F)
Dew point-2.2°C (28.0°F)
Winds 14 kts (7.2 m/s, 16.1 mph) West-Southwest (250°)
Wind gusts 21 kts (10.8 m/s, 24.2 mph)
Visibility10 mi. (16.1 km)
Clouds Scattered clouds 25,000 ft. (7,620 m)
Altimeter29.84 in.Hg (1010 mB)
Relative humidity70 %
Density altitude-1,328 ft. (-405 m)
Sea-level pressure101.1 kPa (1011 mB, 29.86 in.Hg)
Remarks System requires maintenance
Automated weather observing station with precipitation discriminator
Flight conditions Visual Meteorological Conditions
Raw dataKORD 051551Z 25014G21KT 10SM SCT250 03/M02 A2984 RMK AO2 SLP111 T00281022 $
An error has occurred. This application may no longer respond until reloaded. Reload 🗙